createdAt,value
2018-03-22T00:00:53.092Z,20.33
2018-03-22T00:03:21.583Z,22.93
2018-03-22T00:05:48.571Z,30.27
2018-03-22T00:08:14.856Z,22.77
2018-03-22T00:10:43.010Z,23.23
2018-03-22T00:13:12.547Z,26.07
2018-03-22T00:15:39.894Z,20.20
2018-03-22T00:18:07.659Z,24.13
2018-03-22T00:20:35.550Z,24.00
2018-03-22T00:23:02.746Z,21.93
2018-03-22T00:25:29.024Z,23.57
2018-03-22T00:27:55.335Z,23.90
2018-03-22T00:30:21.587Z,27.03
2018-03-22T00:32:48.309Z,24.50
2018-03-22T00:35:14.741Z,25.63
2018-03-22T00:37:41.881Z,23.73
2018-03-22T00:40:08.503Z,24.97
2018-03-22T00:42:36.172Z,26.10
2018-03-22T00:45:03.667Z,25.70
2018-03-22T00:47:30.318Z,26.33
2018-03-22T00:49:56.659Z,26.07
2018-03-22T00:52:23.008Z,29.13
2018-03-22T00:54:49.291Z,24.63
2018-03-22T00:57:16.079Z,26.70
2018-03-22T00:59:42.355Z,27.83
2018-03-22T01:02:08.627Z,28.77
2018-03-22T01:04:34.902Z,25.40
2018-03-22T01:07:01.139Z,24.87
2018-03-22T01:09:27.404Z,28.27
2018-03-22T01:11:53.688Z,25.10
2018-03-22T01:14:19.971Z,28.50
2018-03-22T01:16:47.000Z,27.10
2018-03-22T01:19:13.305Z,23.60
2018-03-22T01:21:39.648Z,26.47
2018-03-22T01:24:05.919Z,25.43
2018-03-22T01:26:33.416Z,28.53
2018-03-22T01:28:59.822Z,25.33
2018-03-22T01:31:26.272Z,27.73
2018-03-22T01:33:52.643Z,26.57
2018-03-22T01:36:18.907Z,32.87
2018-03-22T01:38:45.126Z,25.30
2018-03-22T01:41:11.379Z,28.97
2018-03-22T01:43:37.636Z,27.60
2018-03-22T01:46:03.920Z,27.77
2018-03-22T01:48:30.211Z,27.80
2018-03-22T01:50:56.487Z,27.97
2018-03-22T01:53:22.752Z,27.03
2018-03-22T01:55:49.091Z,25.90
2018-03-22T01:58:17.984Z,26.93
2018-03-22T02:00:46.433Z,24.77
2018-03-22T02:03:15.838Z,27.27
2018-03-22T02:05:43.785Z,25.57
2018-03-22T02:08:11.395Z,25.13
2018-03-22T02:10:38.571Z,25.80
2018-03-22T02:13:06.538Z,24.13
2018-03-22T02:15:32.966Z,23.20
2018-03-22T02:17:59.220Z,21.77
2018-03-22T02:20:25.511Z,21.90
2018-03-22T02:22:51.763Z,22.07
2018-03-22T02:25:18.014Z,21.37
2018-03-22T02:27:45.312Z,23.77
2018-03-22T02:30:11.533Z,22.07
2018-03-22T02:32:37.828Z,23.93
2018-03-22T02:35:04.487Z,22.83
2018-03-22T02:37:30.780Z,22.60
2018-03-22T02:39:57.078Z,22.87
2018-03-22T02:42:23.351Z,25.37
2018-03-22T02:44:49.651Z,29.23
2018-03-22T02:47:16.654Z,25.33
2018-03-22T02:49:42.919Z,24.20
2018-03-22T02:52:09.268Z,23.60
2018-03-22T02:54:36.248Z,26.70
2018-03-22T02:57:02.520Z,28.13
2018-03-22T02:59:28.775Z,24.67
2018-03-22T03:01:55.778Z,25.87
2018-03-22T03:04:22.037Z,27.67
2018-03-22T03:06:48.318Z,27.03
2018-03-22T03:09:14.556Z,28.63
2018-03-22T03:11:40.819Z,28.07
2018-03-22T03:14:07.068Z,26.03
2018-03-22T03:16:33.316Z,28.97
2018-03-22T03:18:59.576Z,30.53
2018-03-22T03:21:25.827Z,26.03
2018-03-22T03:23:52.102Z,30.30
2018-03-22T03:26:18.357Z,31.57
2018-03-22T03:28:45.562Z,29.43
2018-03-22T03:31:11.945Z,27.57
2018-03-22T03:33:38.224Z,26.47
2018-03-22T03:36:04.527Z,26.97
2018-03-22T03:38:30.821Z,26.73
2018-03-22T03:40:57.151Z,27.60
2018-03-22T03:43:23.423Z,26.27
2018-03-22T03:45:49.743Z,27.97
2018-03-22T03:48:16.807Z,28.83
2018-03-22T03:50:43.051Z,30.17
2018-03-22T03:53:09.323Z,27.20
2018-03-22T03:55:35.559Z,27.13
2018-03-22T03:58:01.823Z,31.43
2018-03-22T04:00:28.068Z,26.27
2018-03-22T04:02:54.435Z,24.97
2018-03-22T04:05:20.707Z,25.83
2018-03-22T04:07:46.941Z,25.30
2018-03-22T04:10:13.232Z,28.30
2018-03-22T04:12:39.471Z,25.70
2018-03-22T04:15:06.598Z,27.20
2018-03-22T04:17:38.980Z,23.87
2018-03-22T04:20:05.320Z,26.20
2018-03-22T04:22:31.580Z,23.23
2018-03-22T04:24:58.043Z,25.93
2018-03-22T04:27:24.283Z,25.43
2018-03-22T04:29:50.639Z,27.57
2018-03-22T04:32:16.907Z,24.37
2018-03-22T04:34:43.259Z,24.70
2018-03-22T04:37:09.515Z,28.00
2018-03-22T04:39:36.195Z,23.63
2018-03-22T04:42:02.459Z,29.13
2018-03-22T04:44:28.724Z,26.73
2018-03-22T04:46:54.963Z,27.07
2018-03-22T04:49:21.227Z,25.00
2018-03-22T04:51:47.471Z,24.67
2018-03-22T04:54:13.750Z,23.63
2018-03-22T04:56:40.014Z,21.80
2018-03-22T04:59:06.618Z,22.00
2018-03-22T05:01:32.875Z,23.50
2018-03-22T05:03:59.120Z,22.57
2018-03-22T05:06:25.360Z,21.60
2018-03-22T05:08:51.611Z,25.10
2018-03-22T05:11:17.899Z,24.83
2018-03-22T05:13:44.743Z,26.33
2018-03-22T05:16:11.030Z,22.70
2018-03-22T05:18:37.310Z,23.17
2018-03-22T05:21:03.566Z,22.17
2018-03-22T05:23:35.892Z,23.20
2018-03-22T05:26:02.920Z,23.73
2018-03-22T05:28:29.939Z,25.97
2018-03-22T05:30:56.190Z,25.97
2018-03-22T05:33:22.422Z,31.10
2018-03-22T05:35:48.802Z,59.70
2018-03-22T05:38:15.063Z,28.60
2018-03-22T05:40:41.355Z,24.80
2018-03-22T05:43:07.891Z,27.07
2018-03-22T05:45:34.192Z,26.23
2018-03-22T05:48:00.462Z,25.30
2018-03-22T05:50:26.708Z,23.60
2018-03-22T05:52:53.027Z,23.03
2018-03-22T05:55:19.275Z,24.03
2018-03-22T05:57:45.601Z,23.63
2018-03-22T06:00:11.867Z,25.23
2018-03-22T06:02:38.203Z,23.03
2018-03-22T06:05:07.075Z,24.23
2018-03-22T06:07:33.350Z,27.70
2018-03-22T06:09:59.604Z,27.67
2018-03-22T06:12:26.619Z,28.60
2018-03-22T06:14:52.895Z,24.37
2018-03-22T06:17:19.906Z,25.60
2018-03-22T06:19:46.194Z,31.00
2018-03-22T06:22:12.533Z,30.07
2018-03-22T06:24:38.783Z,30.37
2018-03-22T06:27:06.050Z,30.60
2018-03-22T06:29:32.289Z,33.27
2018-03-22T06:31:58.540Z,32.00
2018-03-22T06:34:25.552Z,33.20
2018-03-22T06:36:51.839Z,33.20
2018-03-22T06:39:18.101Z,32.80
2018-03-22T06:41:44.334Z,36.80
2018-03-22T06:44:10.603Z,31.13
2018-03-22T06:46:36.879Z,33.20
2018-03-22T06:49:03.371Z,33.77
2018-03-22T06:51:29.607Z,45.23
2018-03-22T06:53:55.892Z,44.50
2018-03-22T06:56:22.146Z,38.13
2018-03-22T06:58:48.421Z,39.90
2018-03-22T07:01:15.415Z,42.60
2018-03-22T07:03:41.787Z,39.23
2018-03-22T07:06:08.904Z,40.93
2018-03-22T07:08:35.168Z,41.37
2018-03-22T07:11:01.399Z,38.00
2018-03-22T07:13:27.803Z,42.77
2018-03-22T07:15:54.023Z,40.73
2018-03-22T07:18:20.415Z,46.03
2018-03-22T07:20:47.413Z,293.53
2018-03-22T07:23:13.743Z,43.90
2018-03-22T07:25:40.013Z,44.37
2018-03-22T07:28:06.303Z,45.63
2018-03-22T07:30:32.531Z,43.30
2018-03-22T07:32:58.798Z,38.00
2018-03-22T07:35:25.047Z,37.67
2018-03-22T07:37:51.310Z,43.43
2018-03-22T07:40:17.562Z,32.47
2018-03-22T07:42:43.906Z,34.87
2018-03-22T07:45:10.212Z,36.27
2018-03-22T07:47:36.756Z,34.70
2018-03-22T07:50:03.891Z,33.90
2018-03-22T07:52:30.158Z,34.40
2018-03-22T07:54:56.438Z,41.33
2018-03-22T07:57:23.432Z,28.47
2018-03-22T07:59:49.783Z,30.13
2018-03-22T08:02:16.034Z,28.10
2018-03-22T08:04:43.219Z,25.83
2018-03-22T08:07:09.487Z,26.30
2018-03-22T08:09:35.791Z,22.97
2018-03-22T08:12:02.067Z,24.07
2018-03-22T08:14:28.323Z,20.30
2018-03-22T08:16:55.315Z,21.00
2018-03-22T08:19:21.975Z,19.20
2018-03-22T08:21:49.094Z,16.80
2018-03-22T08:24:15.343Z,17.93
2018-03-22T08:26:41.787Z,15.30
2018-03-22T08:29:08.172Z,15.67
2018-03-22T08:31:34.447Z,12.30
2018-03-22T08:34:00.725Z,12.93
2018-03-22T08:36:27.934Z,11.43
2018-03-22T08:38:54.163Z,10.67
2018-03-22T08:41:20.936Z,10.87
2018-03-22T08:43:47.269Z,9.90
2018-03-22T08:46:13.557Z,14.13
2018-03-22T08:48:40.202Z,10.67
2018-03-22T08:51:06.443Z,9.90
2018-03-22T08:53:32.767Z,8.20
2018-03-22T08:55:59.043Z,8.03
2018-03-22T08:58:26.023Z,8.37
2018-03-22T09:00:52.293Z,7.90
2018-03-22T09:03:18.519Z,8.80
2018-03-22T09:05:44.771Z,8.47
2018-03-22T09:08:11.079Z,7.93
2018-03-22T09:10:37.291Z,8.23
2018-03-22T09:13:03.675Z,9.00
2018-03-22T09:15:29.907Z,7.77
2018-03-22T09:17:56.268Z,8.17
2018-03-22T09:20:22.524Z,9.03
2018-03-22T09:22:48.855Z,9.03
2018-03-22T09:25:15.122Z,32.20
2018-03-22T09:27:41.449Z,9.53
2018-03-22T09:30:07.688Z,9.23
2018-03-22T09:32:34.006Z,8.97
2018-03-22T09:35:00.252Z,8.33
2018-03-22T09:37:26.516Z,8.83
2018-03-22T09:39:52.801Z,10.20
2018-03-22T09:42:19.064Z,8.60
2018-03-22T09:44:45.328Z,8.30
2018-03-22T09:47:11.649Z,7.43
2018-03-22T09:49:38.832Z,7.97
2018-03-22T09:52:05.487Z,7.60
2018-03-22T09:54:31.740Z,8.10
2018-03-22T09:56:58.891Z,7.93
2018-03-22T09:59:25.107Z,7.13
2018-03-22T10:01:51.396Z,7.37
2018-03-22T10:04:17.674Z,6.37
2018-03-22T10:06:43.947Z,6.70
2018-03-22T10:09:10.216Z,7.70
2018-03-22T10:11:36.487Z,7.40
2018-03-22T10:14:02.787Z,8.50
2018-03-22T10:16:43.960Z,7.87
2018-03-22T10:19:10.261Z,9.30
2018-03-22T10:21:36.503Z,7.37
2018-03-22T10:24:02.776Z,8.20
2018-03-22T10:26:29.516Z,8.97
2018-03-22T10:28:56.751Z,9.90
2018-03-22T10:31:23.016Z,8.90
2018-03-22T10:33:49.276Z,9.27
2018-03-22T10:36:15.559Z,10.50
2018-03-22T10:38:41.834Z,8.77
2018-03-22T10:41:08.103Z,15.20
2018-03-22T10:43:34.400Z,8.93
2018-03-22T10:46:00.642Z,9.27
2018-03-22T10:48:26.946Z,12.30
2018-03-22T10:50:53.322Z,9.87
2018-03-22T10:53:19.603Z,9.27
2018-03-22T10:55:45.927Z,11.00
2018-03-22T10:58:12.562Z,11.60
2018-03-22T11:00:38.883Z,9.93
2018-03-22T11:03:11.216Z,11.70
2018-03-22T11:05:37.486Z,11.07
2018-03-22T11:08:03.752Z,12.13
2018-03-22T11:10:30.047Z,12.50
2018-03-22T11:12:56.336Z,12.43
2018-03-22T11:15:22.681Z,11.77
2018-03-22T11:17:48.943Z,16.80
2018-03-22T11:20:15.587Z,13.23
2018-03-22T11:22:41.860Z,13.70
2018-03-22T11:25:08.171Z,13.37
2018-03-22T11:27:34.424Z,14.80
2018-03-22T11:30:00.743Z,14.57
2018-03-22T11:32:26.979Z,13.13
2018-03-22T11:34:54.056Z,13.87
2018-03-22T11:37:20.304Z,13.00
2018-03-22T11:39:46.599Z,12.83
2018-03-22T11:42:12.906Z,12.77
2018-03-22T11:44:39.464Z,14.03
2018-03-22T11:47:05.752Z,13.07
2018-03-22T11:49:32.044Z,13.53
2018-03-22T11:51:58.323Z,11.67
2018-03-22T11:54:24.580Z,12.13
2018-03-22T11:56:50.843Z,12.77
2018-03-22T11:59:17.840Z,12.33
2018-03-22T12:01:44.139Z,9.73
2018-03-22T12:04:10.423Z,10.73
2018-03-22T12:06:36.720Z,9.70
2018-03-22T12:09:03.320Z,9.60
2018-03-22T12:11:29.640Z,8.27
2018-03-22T12:13:55.903Z,8.27
2018-03-22T12:16:22.980Z,8.53
2018-03-22T12:18:49.247Z,8.90
2018-03-22T12:21:16.303Z,8.37
2018-03-22T12:23:43.887Z,9.63
2018-03-22T12:26:10.175Z,8.57
2018-03-22T12:28:39.472Z,8.13
2018-03-22T12:31:05.755Z,8.57
2018-03-22T12:33:32.236Z,8.20
2018-03-22T12:35:58.557Z,7.77
2018-03-22T12:38:25.465Z,8.10
2018-03-22T12:40:51.715Z,7.77
2018-03-22T12:43:18.036Z,8.07
2018-03-22T12:45:44.276Z,7.73
2018-03-22T12:48:10.561Z,7.87
2018-03-22T12:50:36.801Z,8.33
2018-03-22T12:53:03.089Z,8.87
2018-03-22T12:55:29.372Z,8.70
2018-03-22T12:57:56.084Z,9.00
2018-03-22T13:00:22.350Z,8.37
2018-03-22T13:02:48.663Z,9.00
2018-03-22T13:05:15.392Z,9.23
2018-03-22T13:07:43.290Z,10.00
2018-03-22T13:10:09.628Z,9.90
2018-03-22T13:12:35.891Z,10.03
2018-03-22T13:15:02.188Z,10.23
2018-03-22T13:17:28.489Z,11.23
2018-03-22T13:19:55.041Z,11.10
2018-03-22T13:22:21.348Z,10.77
2018-03-22T13:24:47.911Z,11.90
2018-03-22T13:27:14.181Z,11.17
2018-03-22T13:29:40.906Z,12.17
2018-03-22T13:32:07.155Z,13.30
2018-03-22T13:34:33.575Z,14.90
2018-03-22T13:36:59.844Z,15.47
2018-03-22T13:39:26.418Z,15.90
2018-03-22T13:41:52.668Z,16.03
2018-03-22T13:44:19.173Z,17.03
2018-03-22T13:46:45.531Z,17.43
2018-03-22T13:49:11.829Z,17.87
2018-03-22T13:51:38.075Z,18.57
2018-03-22T13:54:04.699Z,17.40
2018-03-22T13:56:31.044Z,17.70
2018-03-22T13:58:57.320Z,19.17
2018-03-22T14:01:23.603Z,18.43
2018-03-22T14:03:50.410Z,18.60
2018-03-22T14:06:16.688Z,18.17
2018-03-22T14:08:42.972Z,20.67
2018-03-22T14:11:09.272Z,18.50
2018-03-22T14:13:35.568Z,18.90
2018-03-22T14:16:01.851Z,17.50
2018-03-22T14:18:28.443Z,17.97
2018-03-22T14:20:54.704Z,18.33
2018-03-22T14:23:21.027Z,15.37
2018-03-22T14:25:47.394Z,16.17
2018-03-22T14:28:13.635Z,15.53
2018-03-22T14:30:39.948Z,11.90
2018-03-22T14:33:06.225Z,11.17
2018-03-22T14:35:33.316Z,10.57
2018-03-22T14:37:59.603Z,10.80
2018-03-22T14:40:25.956Z,10.93
2018-03-22T14:42:52.191Z,9.40
2018-03-22T14:45:18.628Z,9.20
2018-03-22T14:47:45.627Z,9.97
2018-03-22T14:50:11.924Z,11.37
2018-03-22T14:52:38.920Z,12.67
2018-03-22T14:55:05.508Z,11.80
2018-03-22T14:57:31.764Z,13.07
2018-03-22T15:00:00.052Z,13.87
2018-03-22T15:02:27.924Z,14.20
2018-03-22T15:04:54.219Z,16.53
2018-03-22T15:07:20.572Z,15.77
2018-03-22T15:09:46.981Z,15.97
2018-03-22T15:12:13.273Z,12.37
2018-03-22T15:14:39.536Z,17.70
2018-03-22T15:17:06.620Z,16.07
2018-03-22T15:19:32.892Z,18.83
2018-03-22T15:21:59.288Z,17.93
2018-03-22T15:24:25.929Z,18.03
2018-03-22T15:26:52.212Z,17.77
2018-03-22T15:29:18.451Z,17.93
2018-03-22T15:31:45.487Z,20.07
2018-03-22T15:34:12.626Z,23.03
2018-03-22T15:36:38.912Z,22.97
2018-03-22T15:39:05.281Z,17.03
2018-03-22T15:41:31.560Z,20.27
2018-03-22T15:43:58.763Z,18.07
2018-03-22T15:46:25.072Z,18.53
2018-03-22T15:48:55.767Z,17.57
2018-03-22T15:51:22.116Z,17.23
2018-03-22T15:53:49.298Z,21.13
2018-03-22T15:56:15.767Z,18.37
2018-03-22T15:58:42.032Z,18.23
2018-03-22T16:01:08.296Z,19.37
2018-03-22T16:03:34.555Z,20.87
2018-03-22T16:06:00.892Z,19.43
2018-03-22T16:08:27.199Z,20.33
2018-03-22T16:10:53.672Z,19.17
2018-03-22T16:13:19.967Z,24.30
2018-03-22T16:15:46.245Z,20.80
2018-03-22T16:18:13.276Z,23.10
2018-03-22T16:20:40.082Z,21.93
2018-03-22T16:23:06.371Z,23.90
2018-03-22T16:25:33.512Z,22.93
2018-03-22T16:28:00.267Z,25.67
2018-03-22T16:30:26.552Z,26.17
2018-03-22T16:32:52.836Z,22.37
2018-03-22T16:35:19.839Z,26.63
2018-03-22T16:37:46.202Z,22.63
2018-03-22T16:40:12.455Z,22.77
2018-03-22T16:42:40.608Z,25.70
2018-03-22T16:45:06.979Z,28.03
2018-03-22T16:47:33.283Z,27.73
2018-03-22T16:49:59.600Z,29.07
2018-03-22T16:52:25.998Z,29.60
2018-03-22T16:54:52.404Z,27.53
2018-03-22T16:57:19.488Z,27.87
2018-03-22T16:59:45.786Z,31.30
2018-03-22T17:02:12.720Z,36.13
2018-03-22T17:04:39.067Z,31.07
2018-03-22T17:07:05.440Z,33.97
2018-03-22T17:09:31.721Z,32.73
2018-03-22T17:11:57.984Z,34.47
2018-03-22T17:14:24.604Z,34.40
2018-03-22T17:16:50.963Z,35.97
2018-03-22T17:19:17.300Z,35.33
2018-03-22T17:21:43.691Z,34.27
2018-03-22T17:24:10.040Z,39.27
2018-03-22T17:26:37.015Z,36.43
2018-03-22T17:29:03.381Z,47.67
2018-03-22T17:31:29.651Z,40.03
2018-03-22T17:33:55.932Z,41.67
2018-03-22T17:36:22.328Z,38.73
2018-03-22T17:38:48.615Z,43.70
2018-03-22T17:41:14.917Z,40.10
2018-03-22T17:43:41.215Z,44.67
2018-03-22T17:46:07.758Z,43.90
2018-03-22T17:48:34.073Z,46.10
2018-03-22T17:51:00.736Z,42.63
2018-03-22T17:53:27.028Z,42.87
2018-03-22T17:55:53.282Z,45.17
2018-03-22T17:58:19.716Z,47.27
2018-03-22T18:00:46.015Z,42.27
2018-03-22T18:03:12.351Z,44.83
2018-03-22T18:05:38.619Z,47.30
2018-03-22T18:08:04.876Z,212.60
2018-03-22T18:10:31.193Z,51.27
2018-03-22T18:12:57.524Z,48.50
2018-03-22T18:15:23.797Z,46.60
2018-03-22T18:17:50.124Z,47.10
2018-03-22T18:20:17.148Z,52.97
2018-03-22T18:22:45.060Z,50.63
2018-03-22T18:25:11.372Z,49.67
2018-03-22T18:27:37.667Z,46.23
2018-03-22T18:30:04.083Z,51.73
2018-03-22T18:32:30.337Z,47.93
2018-03-22T18:34:56.983Z,54.27
2018-03-22T18:37:23.224Z,50.03
2018-03-22T18:39:49.494Z,54.47
2018-03-22T18:42:15.751Z,51.23
2018-03-22T18:44:42.032Z,48.33
2018-03-22T18:47:08.420Z,49.80
2018-03-22T18:49:35.000Z,50.07
2018-03-22T18:52:01.295Z,54.13
2018-03-22T18:54:27.616Z,56.90
2018-03-22T18:56:54.640Z,49.83
2018-03-22T18:59:20.928Z,49.83
2018-03-22T19:01:47.236Z,55.77
2018-03-22T19:04:13.555Z,51.10
2018-03-22T19:06:39.887Z,54.73
2018-03-22T19:09:06.151Z,49.23
2018-03-22T19:11:39.215Z,47.73
2018-03-22T19:14:05.546Z,47.90
2018-03-22T19:16:32.483Z,53.70
2018-03-22T19:18:58.736Z,51.17
2018-03-22T19:21:26.001Z,56.73
2018-03-22T19:23:52.271Z,54.27
2018-03-22T19:26:18.579Z,52.17
2018-03-22T19:28:44.931Z,52.77
2018-03-22T19:31:12.411Z,49.70
2018-03-22T19:33:38.724Z,50.70
2018-03-22T19:36:05.091Z,50.67
2018-03-22T19:38:31.371Z,47.40
2018-03-22T19:40:57.660Z,52.60
2018-03-22T19:43:23.936Z,48.77
2018-03-22T19:45:50.222Z,50.50
2018-03-22T19:48:17.026Z,49.40
2018-03-22T19:50:43.358Z,45.40
2018-03-22T19:53:09.696Z,48.17
2018-03-22T19:55:35.984Z,50.40
2018-03-22T19:58:02.279Z,49.23
2018-03-22T20:00:28.860Z,47.93
2018-03-22T20:02:55.191Z,45.93
2018-03-22T20:05:21.446Z,50.50
2018-03-22T20:07:47.774Z,55.83
2018-03-22T20:10:14.064Z,50.83
2018-03-22T20:12:42.672Z,52.23
2018-03-22T20:15:09.059Z,52.53
2018-03-22T20:17:35.436Z,54.83
2018-03-22T20:20:01.811Z,55.60
2018-03-22T20:22:28.122Z,54.00
2018-03-22T20:24:54.452Z,53.07
2018-03-22T20:27:20.808Z,53.53
2018-03-22T20:29:47.090Z,53.10
2018-03-22T20:32:13.336Z,55.40
2018-03-22T20:34:39.639Z,89.77
2018-03-22T20:37:06.615Z,52.13
2018-03-22T20:39:32.951Z,54.03
2018-03-22T20:41:59.229Z,49.63
2018-03-22T20:44:25.612Z,46.17
2018-03-22T20:46:51.859Z,47.97
2018-03-22T20:49:18.131Z,48.87
2018-03-22T20:51:44.396Z,47.37
2018-03-22T20:54:10.833Z,45.10
2018-03-22T20:56:37.119Z,40.90
2018-03-22T20:59:03.488Z,45.83
2018-03-22T21:01:29.762Z,47.57
2018-03-22T21:03:56.085Z,45.80
2018-03-22T21:06:22.304Z,45.97
2018-03-22T21:08:48.632Z,45.40
2018-03-22T21:11:14.931Z,50.70
2018-03-22T21:13:41.208Z,55.20
2018-03-22T21:16:07.468Z,53.50
2018-03-22T21:18:33.748Z,55.00
2018-03-22T21:21:00.116Z,52.77
2018-03-22T21:23:26.368Z,57.77
2018-03-22T21:25:52.718Z,54.17
2018-03-22T21:28:19.832Z,55.83
2018-03-22T21:30:46.203Z,53.87
2018-03-22T21:33:12.448Z,56.20
2018-03-22T21:35:38.755Z,57.53
2018-03-22T21:38:05.067Z,56.47
2018-03-22T21:40:31.567Z,56.77
2018-03-22T21:42:57.830Z,52.07
2018-03-22T21:45:24.112Z,58.33
2018-03-22T21:47:51.168Z,50.93
2018-03-22T21:50:17.463Z,58.63
2018-03-22T21:52:44.764Z,52.80
2018-03-22T21:55:11.103Z,54.83
2018-03-22T21:57:37.357Z,52.43
2018-03-22T22:00:03.663Z,54.17
2018-03-22T22:02:29.928Z,51.30
2018-03-22T22:04:56.274Z,50.87
2018-03-22T22:07:23.404Z,53.90
2018-03-22T22:09:49.729Z,55.37
2018-03-22T22:12:16.088Z,51.73
2018-03-22T22:14:42.404Z,54.70
2018-03-22T22:17:08.700Z,57.43
2018-03-22T22:19:34.997Z,50.67
2018-03-22T22:22:01.385Z,54.27
2018-03-22T22:24:27.727Z,57.80
2018-03-22T22:26:54.052Z,57.63
2018-03-22T22:29:20.336Z,58.97
2018-03-22T22:31:46.627Z,53.83
2018-03-22T22:34:12.944Z,54.27
2018-03-22T22:36:39.259Z,52.47
2018-03-22T22:39:05.576Z,59.40
2018-03-22T22:41:31.881Z,52.17
2018-03-22T22:43:58.143Z,55.10
2018-03-22T22:46:25.164Z,54.93
2018-03-22T22:48:52.092Z,51.13
2018-03-22T22:51:18.366Z,48.90
2018-03-22T22:53:44.688Z,59.33
2018-03-22T22:56:10.955Z,53.17
2018-03-22T22:58:37.289Z,53.37
2018-03-22T23:01:03.572Z,50.47
2018-03-22T23:03:30.023Z,56.07
2018-03-22T23:05:56.288Z,52.30
2018-03-22T23:08:22.559Z,52.93
2018-03-22T23:10:49.215Z,50.10
2018-03-22T23:13:15.506Z,55.23
2018-03-22T23:15:41.787Z,52.37
2018-03-22T23:18:09.123Z,52.43
2018-03-22T23:20:35.368Z,51.87
2018-03-22T23:23:01.926Z,46.83
2018-03-22T23:25:28.211Z,47.20
2018-03-22T23:27:54.504Z,50.53
2018-03-22T23:30:21.183Z,54.57
2018-03-22T23:32:47.457Z,51.40
2018-03-22T23:35:14.723Z,51.33
2018-03-22T23:37:41.755Z,50.23
2018-03-22T23:40:08.040Z,49.97
2018-03-22T23:42:34.301Z,51.23
2018-03-22T23:45:03.403Z,52.50
2018-03-22T23:47:30.452Z,48.47
2018-03-22T23:49:56.723Z,50.00
2018-03-22T23:52:22.978Z,46.90
2018-03-22T23:54:50.303Z,47.37
2018-03-22T23:57:16.552Z,50.67
2018-03-22T23:59:43.723Z,49.77
